sensor_id;sensor_type;location;lat;lon;timestamp;P1;durP1;ratioP1;P2;durP2;ratioP2
54993;SDS011;40891;47.242;8.648;2022-08-04T00:00:16;3.65;;;2.63;;
54993;SDS011;40891;47.242;8.648;2022-08-04T00:02:46;2.95;;;2.58;;
54993;SDS011;40891;47.242;8.648;2022-08-04T00:05:39;3.88;;;2.78;;
54993;SDS011;40891;47.242;8.648;2022-08-04T00:10:56;5.28;;;2.78;;
54993;SDS011;40891;47.242;8.648;2022-08-04T00:13:24;5.75;;;2.80;;
54993;SDS011;40891;47.242;8.648;2022-08-04T00:16:01;4.50;;;2.92;;
54993;SDS011;40891;47.242;8.648;2022-08-04T00:18:33;5.47;;;3.03;;
54993;SDS011;40891;47.242;8.648;2022-08-04T00:20:59;7.15;;;2.70;;
54993;SDS011;40891;47.242;8.648;2022-08-04T00:23:29;5.22;;;2.70;;
54993;SDS011;40891;47.242;8.648;2022-08-04T00:25:58;4.32;;;3.30;;
54993;SDS011;40891;47.242;8.648;2022-08-04T00:28:25;3.33;;;2.92;;
54993;SDS011;40891;47.242;8.648;2022-08-04T00:30:51;3.30;;;2.75;;
54993;SDS011;40891;47.242;8.648;2022-08-04T00:33:18;3.00;;;2.70;;
54993;SDS011;40891;47.242;8.648;2022-08-04T00:35:45;4.55;;;3.13;;
54993;SDS011;40891;47.242;8.648;2022-08-04T00:38:12;4.13;;;2.78;;
54993;SDS011;40891;47.242;8.648;2022-08-04T00:43:33;3.35;;;2.95;;
54993;SDS011;40891;47.242;8.648;2022-08-04T00:48:52;3.20;;;2.88;;
54993;SDS011;40891;47.242;8.648;2022-08-04T00:59:50;4.88;;;3.05;;
54993;SDS011;40891;47.242;8.648;2022-08-04T01:02:28;6.40;;;3.10;;
54993;SDS011;40891;47.242;8.648;2022-08-04T01:05:06;7.38;;;3.00;;
54993;SDS011;40891;47.242;8.648;2022-08-04T01:13:31;4.03;;;3.05;;
54993;SDS011;40891;47.242;8.648;2022-08-04T01:16:04;4.03;;;2.90;;
54993;SDS011;40891;47.242;8.648;2022-08-04T01:30:06;3.20;;;2.90;;
54993;SDS011;40891;47.242;8.648;2022-08-04T01:32:33;2.80;;;2.58;;
54993;SDS011;40891;47.242;8.648;2022-08-04T01:37:47;6.63;;;2.72;;
54993;SDS011;40891;47.242;8.648;2022-08-04T01:40:13;4.20;;;3.03;;
54993;SDS011;40891;47.242;8.648;2022-08-04T01:42:40;2.95;;;2.65;;
54993;SDS011;40891;47.242;8.648;2022-08-04T01:45:10;4.72;;;2.90;;
54993;SDS011;40891;47.242;8.648;2022-08-04T01:47:39;6.05;;;3.50;;
54993;SDS011;40891;47.242;8.648;2022-08-04T01:50:08;3.83;;;2.72;;
54993;SDS011;40891;47.242;8.648;2022-08-04T01:52:36;3.25;;;2.95;;
54993;SDS011;40891;47.242;8.648;2022-08-04T01:55:05;3.67;;;2.97;;
54993;SDS011;40891;47.242;8.648;2022-08-04T01:57:36;6.40;;;3.28;;
54993;SDS011;40891;47.242;8.648;2022-08-04T02:00:05;3.20;;;2.90;;
54993;SDS011;40891;47.242;8.648;2022-08-04T02:02:31;4.95;;;2.92;;
54993;SDS011;40891;47.242;8.648;2022-08-04T02:04:57;3.75;;;3.20;;
54993;SDS011;40891;47.242;8.648;2022-08-04T02:13:19;5.65;;;3.08;;
54993;SDS011;40891;47.242;8.648;2022-08-04T02:19:23;4.15;;;2.95;;
54993;SDS011;40891;47.242;8.648;2022-08-04T02:21:57;3.95;;;3.30;;
54993;SDS011;40891;47.242;8.648;2022-08-04T02:24:32;3.97;;;3.58;;
54993;SDS011;40891;47.242;8.648;2022-08-04T02:27:00;5.65;;;3.00;;
54993;SDS011;40891;47.242;8.648;2022-08-04T02:29:30;4.07;;;3.47;;
54993;SDS011;40891;47.242;8.648;2022-08-04T02:32:05;3.72;;;3.17;;
54993;SDS011;40891;47.242;8.648;2022-08-04T02:34:52;5.18;;;2.95;;
54993;SDS011;40891;47.242;8.648;2022-08-04T02:37:24;6.15;;;3.20;;
54993;SDS011;40891;47.242;8.648;2022-08-04T02:39:51;4.15;;;3.00;;
54993;SDS011;40891;47.242;8.648;2022-08-04T02:42:18;6.50;;;3.42;;
54993;SDS011;40891;47.242;8.648;2022-08-04T02:44:48;3.97;;;3.03;;
54993;SDS011;40891;47.242;8.648;2022-08-04T02:47:14;6.82;;;3.13;;
54993;SDS011;40891;47.242;8.648;2022-08-04T02:49:44;3.30;;;3.00;;
54993;SDS011;40891;47.242;8.648;2022-08-04T02:52:10;6.28;;;3.00;;
54993;SDS011;40891;47.242;8.648;2022-08-04T02:54:39;4.55;;;2.80;;
54993;SDS011;40891;47.242;8.648;2022-08-04T02:57:08;3.40;;;3.03;;
54993;SDS011;40891;47.242;8.648;2022-08-04T03:00:21;4.57;;;3.10;;
54993;SDS011;40891;47.242;8.648;2022-08-04T03:02:49;3.97;;;2.88;;
54993;SDS011;40891;47.242;8.648;2022-08-04T03:11:43;7.25;;;3.40;;
54993;SDS011;40891;47.242;8.648;2022-08-04T03:39:55;4.75;;;3.20;;
54993;SDS011;40891;47.242;8.648;2022-08-04T03:50:41;7.53;;;3.60;;
54993;SDS011;40891;47.242;8.648;2022-08-04T03:53:17;4.15;;;3.05;;
54993;SDS011;40891;47.242;8.648;2022-08-04T03:58:52;8.95;;;3.60;;
54993;SDS011;40891;47.242;8.648;2022-08-04T04:01:34;4.00;;;3.08;;
54993;SDS011;40891;47.242;8.648;2022-08-04T04:12:51;4.55;;;3.78;;
54993;SDS011;40891;47.242;8.648;2022-08-04T04:18:19;5.88;;;3.08;;
54993;SDS011;40891;47.242;8.648;2022-08-04T04:29:46;4.30;;;3.30;;
54993;SDS011;40891;47.242;8.648;2022-08-04T04:45:45;7.55;;;3.33;;
54993;SDS011;40891;47.242;8.648;2022-08-04T04:48:32;5.63;;;3.72;;
54993;SDS011;40891;47.242;8.648;2022-08-04T04:51:12;5.53;;;3.30;;
54993;SDS011;40891;47.242;8.648;2022-08-04T04:56:59;4.57;;;3.05;;
54993;SDS011;40891;47.242;8.648;2022-08-04T04:59:32;8.95;;;3.83;;
54993;SDS011;40891;47.242;8.648;2022-08-04T05:04:35;4.35;;;3.13;;
54993;SDS011;40891;47.242;8.648;2022-08-04T05:15:52;7.03;;;3.22;;
54993;SDS011;40891;47.242;8.648;2022-08-04T05:18:24;7.15;;;3.75;;
54993;SDS011;40891;47.242;8.648;2022-08-04T05:21:08;4.97;;;3.10;;
54993;SDS011;40891;47.242;8.648;2022-08-04T05:23:37;4.88;;;3.22;;
54993;SDS011;40891;47.242;8.648;2022-08-04T05:26:11;6.00;;;3.30;;
54993;SDS011;40891;47.242;8.648;2022-08-04T05:28:42;4.88;;;3.00;;
54993;SDS011;40891;47.242;8.648;2022-08-04T05:31:17;4.60;;;3.00;;
54993;SDS011;40891;47.242;8.648;2022-08-04T05:34:08;6.57;;;3.47;;
54993;SDS011;40891;47.242;8.648;2022-08-04T05:36:48;6.35;;;3.20;;
54993;SDS011;40891;47.242;8.648;2022-08-04T05:39:17;7.13;;;3.08;;
54993;SDS011;40891;47.242;8.648;2022-08-04T05:41:46;4.50;;;3.20;;
54993;SDS011;40891;47.242;8.648;2022-08-04T05:44:14;7.22;;;4.00;;
54993;SDS011;40891;47.242;8.648;2022-08-04T05:46:41;12.30;;;3.60;;
54993;SDS011;40891;47.242;8.648;2022-08-04T05:49:08;16.42;;;3.97;;
54993;SDS011;40891;47.242;8.648;2022-08-04T05:51:35;7.90;;;3.53;;
54993;SDS011;40891;47.242;8.648;2022-08-04T05:54:03;8.32;;;3.92;;
54993;SDS011;40891;47.242;8.648;2022-08-04T05:56:30;8.10;;;3.58;;
54993;SDS011;40891;47.242;8.648;2022-08-04T05:58:58;13.40;;;3.80;;
54993;SDS011;40891;47.242;8.648;2022-08-04T06:01:26;11.30;;;3.28;;
54993;SDS011;40891;47.242;8.648;2022-08-04T06:03:53;16.65;;;3.90;;
54993;SDS011;40891;47.242;8.648;2022-08-04T06:06:21;7.43;;;3.30;;
54993;SDS011;40891;47.242;8.648;2022-08-04T06:08:46;10.18;;;4.05;;
54993;SDS011;40891;47.242;8.648;2022-08-04T06:11:12;6.22;;;3.72;;
54993;SDS011;40891;47.242;8.648;2022-08-04T06:13:43;6.45;;;3.55;;
54993;SDS011;40891;47.242;8.648;2022-08-04T06:16:14;5.30;;;3.70;;
54993;SDS011;40891;47.242;8.648;2022-08-04T06:18:41;5.93;;;3.50;;
54993;SDS011;40891;47.242;8.648;2022-08-04T06:21:09;7.82;;;3.20;;
54993;SDS011;40891;47.242;8.648;2022-08-04T06:23:36;5.88;;;3.38;;
54993;SDS011;40891;47.242;8.648;2022-08-04T06:26:05;3.75;;;3.00;;
54993;SDS011;40891;47.242;8.648;2022-08-04T06:28:33;4.53;;;3.53;;
54993;SDS011;40891;47.242;8.648;2022-08-04T06:31:00;8.27;;;3.55;;
54993;SDS011;40891;47.242;8.648;2022-08-04T06:33:30;6.68;;;3.63;;
54993;SDS011;40891;47.242;8.648;2022-08-04T06:36:01;6.82;;;3.10;;
54993;SDS011;40891;47.242;8.648;2022-08-04T06:38:30;12.85;;;3.67;;
54993;SDS011;40891;47.242;8.648;2022-08-04T06:40:59;3.90;;;3.50;;
54993;SDS011;40891;47.242;8.648;2022-08-04T06:43:28;3.85;;;3.22;;
54993;SDS011;40891;47.242;8.648;2022-08-04T06:45:56;5.30;;;3.58;;
54993;SDS011;40891;47.242;8.648;2022-08-04T06:48:23;5.32;;;3.55;;
54993;SDS011;40891;47.242;8.648;2022-08-04T06:50:50;4.47;;;3.38;;
54993;SDS011;40891;47.242;8.648;2022-08-04T06:53:17;5.88;;;4.13;;
54993;SDS011;40891;47.242;8.648;2022-08-04T06:55:47;10.73;;;3.50;;
54993;SDS011;40891;47.242;8.648;2022-08-04T06:58:13;6.30;;;3.60;;
54993;SDS011;40891;47.242;8.648;2022-08-04T07:00:40;4.47;;;3.63;;
54993;SDS011;40891;47.242;8.648;2022-08-04T07:03:08;8.30;;;3.42;;
54993;SDS011;40891;47.242;8.648;2022-08-04T07:05:34;25.25;;;4.00;;
54993;SDS011;40891;47.242;8.648;2022-08-04T07:08:00;15.15;;;4.13;;
54993;SDS011;40891;47.242;8.648;2022-08-04T07:10:26;7.85;;;3.80;;
54993;SDS011;40891;47.242;8.648;2022-08-04T07:12:52;13.98;;;4.28;;
54993;SDS011;40891;47.242;8.648;2022-08-04T07:15:20;12.65;;;3.83;;
54993;SDS011;40891;47.242;8.648;2022-08-04T07:17:48;4.20;;;3.63;;
54993;SDS011;40891;47.242;8.648;2022-08-04T07:20:15;7.28;;;3.38;;
54993;SDS011;40891;47.242;8.648;2022-08-04T07:22:41;3.55;;;3.25;;
54993;SDS011;40891;47.242;8.648;2022-08-04T07:25:08;5.15;;;3.35;;
54993;SDS011;40891;47.242;8.648;2022-08-04T07:27:34;7.10;;;3.65;;
54993;SDS011;40891;47.242;8.648;2022-08-04T07:30:01;8.30;;;3.67;;
54993;SDS011;40891;47.242;8.648;2022-08-04T07:32:29;7.97;;;3.25;;
54993;SDS011;40891;47.242;8.648;2022-08-04T07:34:56;6.05;;;3.42;;
54993;SDS011;40891;47.242;8.648;2022-08-04T07:37:22;4.00;;;3.30;;
54993;SDS011;40891;47.242;8.648;2022-08-04T07:39:48;8.23;;;3.20;;
54993;SDS011;40891;47.242;8.648;2022-08-04T07:42:13;3.50;;;3.20;;
54993;SDS011;40891;47.242;8.648;2022-08-04T07:44:44;4.82;;;3.40;;
54993;SDS011;40891;47.242;8.648;2022-08-04T07:47:10;4.88;;;3.53;;
54993;SDS011;40891;47.242;8.648;2022-08-04T07:49:36;4.78;;;3.38;;
54993;SDS011;40891;47.242;8.648;2022-08-04T07:52:02;6.68;;;3.80;;
54993;SDS011;40891;47.242;8.648;2022-08-04T07:54:28;4.30;;;3.13;;
54993;SDS011;40891;47.242;8.648;2022-08-04T07:56:53;4.50;;;3.53;;
54993;SDS011;40891;47.242;8.648;2022-08-04T07:59:19;5.35;;;3.97;;
54993;SDS011;40891;47.242;8.648;2022-08-04T08:01:45;4.43;;;3.72;;
54993;SDS011;40891;47.242;8.648;2022-08-04T08:04:12;5.68;;;3.90;;
54993;SDS011;40891;47.242;8.648;2022-08-04T08:06:39;6.15;;;4.03;;
54993;SDS011;40891;47.242;8.648;2022-08-04T08:09:06;7.85;;;3.78;;
54993;SDS011;40891;47.242;8.648;2022-08-04T08:11:33;8.68;;;4.03;;
54993;SDS011;40891;47.242;8.648;2022-08-04T08:13:58;4.38;;;3.92;;
54993;SDS011;40891;47.242;8.648;2022-08-04T08:16:24;3.80;;;3.50;;
54993;SDS011;40891;47.242;8.648;2022-08-04T08:18:50;4.55;;;3.72;;
54993;SDS011;40891;47.242;8.648;2022-08-04T08:21:18;7.10;;;3.33;;
54993;SDS011;40891;47.242;8.648;2022-08-04T08:23:44;4.57;;;3.60;;
54993;SDS011;40891;47.242;8.648;2022-08-04T08:26:10;4.85;;;3.55;;
54993;SDS011;40891;47.242;8.648;2022-08-04T08:28:35;7.50;;;3.35;;
54993;SDS011;40891;47.242;8.648;2022-08-04T08:31:01;4.32;;;3.80;;
54993;SDS011;40891;47.242;8.648;2022-08-04T08:33:26;5.07;;;3.30;;
54993;SDS011;40891;47.242;8.648;2022-08-04T08:38:26;4.82;;;3.50;;
54993;SDS011;40891;47.242;8.648;2022-08-04T08:43:41;3.83;;;3.28;;
54993;SDS011;40891;47.242;8.648;2022-08-04T09:11:07;5.43;;;3.28;;
54993;SDS011;40891;47.242;8.648;2022-08-04T09:13:47;4.80;;;3.00;;
54993;SDS011;40891;47.242;8.648;2022-08-04T09:16:21;5.47;;;3.30;;
54993;SDS011;40891;47.242;8.648;2022-08-04T09:18:59;7.53;;;3.15;;
54993;SDS011;40891;47.242;8.648;2022-08-04T09:21:44;3.20;;;2.88;;
54993;SDS011;40891;47.242;8.648;2022-08-04T09:26:59;6.70;;;3.30;;
54993;SDS011;40891;47.242;8.648;2022-08-04T09:30:27;3.42;;;2.80;;
54993;SDS011;40891;47.242;8.648;2022-08-04T09:32:22;7.50;;;3.08;;
54993;SDS011;40891;47.242;8.648;2022-08-04T09:46:41;3.92;;;2.55;;
54993;SDS011;40891;47.242;8.648;2022-08-04T09:49:20;3.72;;;2.90;;
54993;SDS011;40891;47.242;8.648;2022-08-04T09:54:22;3.10;;;2.90;;
54993;SDS011;40891;47.242;8.648;2022-08-04T09:56:55;3.78;;;2.75;;
54993;SDS011;40891;47.242;8.648;2022-08-04T10:02:12;3.00;;;2.75;;
54993;SDS011;40891;47.242;8.648;2022-08-04T10:04:42;4.00;;;2.42;;
54993;SDS011;40891;47.242;8.648;2022-08-04T10:20:23;3.75;;;2.70;;
54993;SDS011;40891;47.242;8.648;2022-08-04T10:25:48;3.45;;;2.65;;
54993;SDS011;40891;47.242;8.648;2022-08-04T10:28:27;3.45;;;2.75;;
54993;SDS011;40891;47.242;8.648;2022-08-04T10:30:56;2.30;;;2.10;;
54993;SDS011;40891;47.242;8.648;2022-08-04T10:36:58;4.25;;;2.60;;
54993;SDS011;40891;47.242;8.648;2022-08-04T10:39:31;3.78;;;2.85;;
54993;SDS011;40891;47.242;8.648;2022-08-04T10:42:11;5.25;;;2.60;;
54993;SDS011;40891;47.242;8.648;2022-08-04T10:44:49;3.15;;;2.78;;
54993;SDS011;40891;47.242;8.648;2022-08-04T10:47:23;2.60;;;2.40;;
54993;SDS011;40891;47.242;8.648;2022-08-04T10:49:54;5.45;;;2.60;;
54993;SDS011;40891;47.242;8.648;2022-08-04T10:52:35;3.65;;;2.53;;
54993;SDS011;40891;47.242;8.648;2022-08-04T10:55:15;4.47;;;2.33;;
54993;SDS011;40891;47.242;8.648;2022-08-04T10:57:53;3.08;;;2.42;;
54993;SDS011;40891;47.242;8.648;2022-08-04T11:00:24;3.33;;;2.40;;
54993;SDS011;40891;47.242;8.648;2022-08-04T11:02:54;2.75;;;2.55;;
54993;SDS011;40891;47.242;8.648;2022-08-04T11:08:16;5.15;;;2.60;;
54993;SDS011;40891;47.242;8.648;2022-08-04T11:16:45;5.88;;;2.50;;
54993;SDS011;40891;47.242;8.648;2022-08-04T11:21:54;5.07;;;2.10;;
54993;SDS011;40891;47.242;8.648;2022-08-04T11:24:23;3.30;;;1.92;;
54993;SDS011;40891;47.242;8.648;2022-08-04T11:27:24;3.65;;;2.15;;
54993;SDS011;40891;47.242;8.648;2022-08-04T11:29:55;3.88;;;2.05;;
54993;SDS011;40891;47.242;8.648;2022-08-04T11:32:33;2.92;;;2.17;;
54993;SDS011;40891;47.242;8.648;2022-08-04T11:35:08;3.55;;;2.22;;
54993;SDS011;40891;47.242;8.648;2022-08-04T11:40:55;5.72;;;2.15;;
54993;SDS011;40891;47.242;8.648;2022-08-04T11:43:07;4.53;;;1.75;;
54993;SDS011;40891;47.242;8.648;2022-08-04T11:45:40;3.40;;;1.75;;
54993;SDS011;40891;47.242;8.648;2022-08-04T11:48:19;2.95;;;1.92;;
54993;SDS011;40891;47.242;8.648;2022-08-04T11:50:49;2.90;;;2.13;;
54993;SDS011;40891;47.242;8.648;2022-08-04T11:53:19;4.90;;;1.88;;
54993;SDS011;40891;47.242;8.648;2022-08-04T11:55:48;2.30;;;1.95;;
54993;SDS011;40891;47.242;8.648;2022-08-04T11:58:16;3.33;;;1.50;;
54993;SDS011;40891;47.242;8.648;2022-08-04T12:03:48;4.00;;;1.45;;
54993;SDS011;40891;47.242;8.648;2022-08-04T12:06:18;3.00;;;1.30;;
54993;SDS011;40891;47.242;8.648;2022-08-04T12:12:06;4.47;;;1.38;;
54993;SDS011;40891;47.242;8.648;2022-08-04T12:15:06;4.18;;;1.38;;
54993;SDS011;40891;47.242;8.648;2022-08-04T12:20:42;6.13;;;1.45;;
54993;SDS011;40891;47.242;8.648;2022-08-04T12:23:23;3.28;;;1.50;;
54993;SDS011;40891;47.242;8.648;2022-08-04T12:25:51;3.83;;;1.33;;
54993;SDS011;40891;47.242;8.648;2022-08-04T12:28:25;8.60;;;1.45;;
54993;SDS011;40891;47.242;8.648;2022-08-04T12:30:59;9.95;;;1.75;;
54993;SDS011;40891;47.242;8.648;2022-08-04T12:33:39;7.30;;;1.33;;
54993;SDS011;40891;47.242;8.648;2022-08-04T12:39:19;3.55;;;1.45;;
54993;SDS011;40891;47.242;8.648;2022-08-04T12:44:43;3.25;;;1.33;;
54993;SDS011;40891;47.242;8.648;2022-08-04T12:47:13;8.15;;;1.35;;
54993;SDS011;40891;47.242;8.648;2022-08-04T12:49:41;2.28;;;1.30;;
54993;SDS011;40891;47.242;8.648;2022-08-04T12:52:11;5.28;;;1.42;;
54993;SDS011;40891;47.242;8.648;2022-08-04T12:54:40;5.40;;;1.27;;
54993;SDS011;40891;47.242;8.648;2022-08-04T12:57:09;4.75;;;1.60;;
54993;SDS011;40891;47.242;8.648;2022-08-04T12:59:42;11.75;;;1.80;;
54993;SDS011;40891;47.242;8.648;2022-08-04T13:02:23;4.70;;;1.27;;
54993;SDS011;40891;47.242;8.648;2022-08-04T13:04:52;3.85;;;1.10;;
54993;SDS011;40891;47.242;8.648;2022-08-04T13:07:21;4.00;;;1.05;;
54993;SDS011;40891;47.242;8.648;2022-08-04T13:09:49;1.48;;;1.08;;
54993;SDS011;40891;47.242;8.648;2022-08-04T13:12:33;1.92;;;1.00;;
54993;SDS011;40891;47.242;8.648;2022-08-04T13:15:11;2.72;;;1.40;;
54993;SDS011;40891;47.242;8.648;2022-08-04T13:17:41;2.45;;;1.10;;
54993;SDS011;40891;47.242;8.648;2022-08-04T13:20:14;4.97;;;1.20;;
54993;SDS011;40891;47.242;8.648;2022-08-04T13:22:41;3.65;;;1.40;;
54993;SDS011;40891;47.242;8.648;2022-08-04T13:25:07;2.60;;;1.20;;
54993;SDS011;40891;47.242;8.648;2022-08-04T13:27:36;5.28;;;1.20;;
54993;SDS011;40891;47.242;8.648;2022-08-04T13:30:03;4.45;;;1.30;;
54993;SDS011;40891;47.242;8.648;2022-08-04T13:32:29;1.70;;;1.08;;
54993;SDS011;40891;47.242;8.648;2022-08-04T13:34:55;3.15;;;1.30;;
54993;SDS011;40891;47.242;8.648;2022-08-04T13:37:24;1.42;;;1.15;;
54993;SDS011;40891;47.242;8.648;2022-08-04T13:39:54;0.98;;;0.90;;
54993;SDS011;40891;47.242;8.648;2022-08-04T13:42:24;2.75;;;1.10;;
54993;SDS011;40891;47.242;8.648;2022-08-04T13:44:52;2.85;;;1.10;;
54993;SDS011;40891;47.242;8.648;2022-08-04T13:47:22;3.83;;;1.20;;
54993;SDS011;40891;47.242;8.648;2022-08-04T13:52:49;1.20;;;1.00;;
54993;SDS011;40891;47.242;8.648;2022-08-04T13:55:27;3.22;;;1.25;;
54993;SDS011;40891;47.242;8.648;2022-08-04T13:58:04;2.25;;;1.10;;
54993;SDS011;40891;47.242;8.648;2022-08-04T14:03:38;3.65;;;1.20;;
54993;SDS011;40891;47.242;8.648;2022-08-04T14:06:19;2.63;;;1.10;;
54993;SDS011;40891;47.242;8.648;2022-08-04T14:08:54;3.67;;;1.05;;
54993;SDS011;40891;47.242;8.648;2022-08-04T14:11:35;4.65;;;1.10;;
54993;SDS011;40891;47.242;8.648;2022-08-04T14:14:11;5.47;;;1.15;;
54993;SDS011;40891;47.242;8.648;2022-08-04T14:27:22;2.53;;;1.17;;
54993;SDS011;40891;47.242;8.648;2022-08-04T14:29:48;2.13;;;1.20;;
54993;SDS011;40891;47.242;8.648;2022-08-04T14:32:14;2.42;;;1.10;;
54993;SDS011;40891;47.242;8.648;2022-08-04T14:34:40;3.40;;;1.20;;
54993;SDS011;40891;47.242;8.648;2022-08-04T14:37:07;2.55;;;0.90;;
54993;SDS011;40891;47.242;8.648;2022-08-04T14:42:11;1.08;;;0.80;;
54993;SDS011;40891;47.242;8.648;2022-08-04T14:44:54;1.50;;;1.10;;
54993;SDS011;40891;47.242;8.648;2022-08-04T14:47:37;2.00;;;1.30;;
54993;SDS011;40891;47.242;8.648;2022-08-04T14:50:02;1.80;;;1.00;;
54993;SDS011;40891;47.242;8.648;2022-08-04T14:52:28;2.45;;;1.10;;
54993;SDS011;40891;47.242;8.648;2022-08-04T14:54:53;1.58;;;0.90;;
54993;SDS011;40891;47.242;8.648;2022-08-04T14:57:19;2.60;;;1.05;;
54993;SDS011;40891;47.242;8.648;2022-08-04T14:59:45;3.10;;;1.10;;
54993;SDS011;40891;47.242;8.648;2022-08-04T15:02:13;1.70;;;0.82;;
54993;SDS011;40891;47.242;8.648;2022-08-04T15:04:39;1.95;;;1.10;;
54993;SDS011;40891;47.242;8.648;2022-08-04T15:07:06;1.65;;;1.08;;
54993;SDS011;40891;47.242;8.648;2022-08-04T15:09:32;3.33;;;1.10;;
54993;SDS011;40891;47.242;8.648;2022-08-04T15:11:58;1.48;;;0.88;;
54993;SDS011;40891;47.242;8.648;2022-08-04T15:14:23;0.80;;;0.80;;
54993;SDS011;40891;47.242;8.648;2022-08-04T15:16:49;2.45;;;1.10;;
54993;SDS011;40891;47.242;8.648;2022-08-04T15:19:15;2.65;;;1.10;;
54993;SDS011;40891;47.242;8.648;2022-08-04T15:21:40;1.33;;;1.10;;
54993;SDS011;40891;47.242;8.648;2022-08-04T15:24:05;1.40;;;1.10;;
54993;SDS011;40891;47.242;8.648;2022-08-04T15:26:42;3.42;;;1.33;;
54993;SDS011;40891;47.242;8.648;2022-08-04T15:29:15;3.08;;;1.10;;
54993;SDS011;40891;47.242;8.648;2022-08-04T15:31:44;2.13;;;0.95;;
54993;SDS011;40891;47.242;8.648;2022-08-04T15:34:11;1.83;;;1.13;;
54993;SDS011;40891;47.242;8.648;2022-08-04T15:44:45;1.50;;;1.15;;
54993;SDS011;40891;47.242;8.648;2022-08-04T15:47:22;4.10;;;1.10;;
54993;SDS011;40891;47.242;8.648;2022-08-04T15:50:03;5.18;;;1.30;;
54993;SDS011;40891;47.242;8.648;2022-08-04T15:52:59;1.27;;;1.13;;
54993;SDS011;40891;47.242;8.648;2022-08-04T15:55:34;2.58;;;1.13;;
54993;SDS011;40891;47.242;8.648;2022-08-04T15:58:04;6.05;;;1.10;;
54993;SDS011;40891;47.242;8.648;2022-08-04T16:16:30;1.13;;;1.05;;
54993;SDS011;40891;47.242;8.648;2022-08-04T16:19:12;3.47;;;1.30;;
54993;SDS011;40891;47.242;8.648;2022-08-04T16:22:02;1.35;;;1.20;;
54993;SDS011;40891;47.242;8.648;2022-08-04T16:27:06;2.20;;;1.20;;
54993;SDS011;40891;47.242;8.648;2022-08-04T16:29:34;3.10;;;1.38;;
54993;SDS011;40891;47.242;8.648;2022-08-04T16:36:55;5.23;;;1.40;;
54993;SDS011;40891;47.242;8.648;2022-08-04T16:39:22;2.20;;;1.50;;
54993;SDS011;40891;47.242;8.648;2022-08-04T16:41:47;2.10;;;1.33;;
54993;SDS011;40891;47.242;8.648;2022-08-04T16:44:32;4.32;;;1.58;;
54993;SDS011;40891;47.242;8.648;2022-08-04T16:47:00;3.10;;;1.40;;
54993;SDS011;40891;47.242;8.648;2022-08-04T16:49:27;3.20;;;1.42;;
54993;SDS011;40891;47.242;8.648;2022-08-04T16:51:59;2.28;;;1.38;;
54993;SDS011;40891;47.242;8.648;2022-08-04T16:54:29;3.00;;;1.45;;
54993;SDS011;40891;47.242;8.648;2022-08-04T16:57:00;3.55;;;1.48;;
54993;SDS011;40891;47.242;8.648;2022-08-04T16:59:31;2.53;;;1.40;;
54993;SDS011;40891;47.242;8.648;2022-08-04T17:01:57;2.97;;;1.40;;
54993;SDS011;40891;47.242;8.648;2022-08-04T17:04:29;5.60;;;1.38;;
54993;SDS011;40891;47.242;8.648;2022-08-04T17:07:00;1.63;;;1.40;;
54993;SDS011;40891;47.242;8.648;2022-08-04T17:09:28;3.45;;;1.40;;
54993;SDS011;40891;47.242;8.648;2022-08-04T17:11:54;4.10;;;1.45;;
54993;SDS011;40891;47.242;8.648;2022-08-04T17:14:21;4.32;;;1.48;;
54993;SDS011;40891;47.242;8.648;2022-08-04T17:16:48;2.80;;;1.50;;
54993;SDS011;40891;47.242;8.648;2022-08-04T17:19:14;3.38;;;1.40;;
54993;SDS011;40891;47.242;8.648;2022-08-04T17:21:40;3.15;;;1.95;;
54993;SDS011;40891;47.242;8.648;2022-08-04T17:24:06;3.17;;;1.55;;
54993;SDS011;40891;47.242;8.648;2022-08-04T17:26:33;3.85;;;1.50;;
54993;SDS011;40891;47.242;8.648;2022-08-04T17:28:59;4.03;;;1.58;;
54993;SDS011;40891;47.242;8.648;2022-08-04T17:31:26;2.25;;;1.60;;
54993;SDS011;40891;47.242;8.648;2022-08-04T17:33:53;2.10;;;1.50;;
54993;SDS011;40891;47.242;8.648;2022-08-04T17:36:24;2.22;;;1.48;;
54993;SDS011;40891;47.242;8.648;2022-08-04T17:38:59;1.98;;;1.40;;
54993;SDS011;40891;47.242;8.648;2022-08-04T17:41:26;7.07;;;1.60;;
54993;SDS011;40891;47.242;8.648;2022-08-04T17:43:54;5.90;;;1.55;;
54993;SDS011;40891;47.242;8.648;2022-08-04T17:49:02;2.15;;;1.75;;
54993;SDS011;40891;47.242;8.648;2022-08-04T17:51:33;3.63;;;1.70;;
54993;SDS011;40891;47.242;8.648;2022-08-04T17:53:59;2.90;;;1.77;;
54993;SDS011;40891;47.242;8.648;2022-08-04T17:56:35;4.07;;;1.95;;
54993;SDS011;40891;47.242;8.648;2022-08-04T17:59:08;2.35;;;1.80;;
54993;SDS011;40891;47.242;8.648;2022-08-04T18:01:40;3.13;;;1.77;;
54993;SDS011;40891;47.242;8.648;2022-08-04T18:07:14;3.78;;;1.80;;
54993;SDS011;40891;47.242;8.648;2022-08-04T18:09:42;2.75;;;1.63;;
54993;SDS011;40891;47.242;8.648;2022-08-04T18:12:24;5.60;;;1.70;;
54993;SDS011;40891;47.242;8.648;2022-08-04T18:14:58;3.92;;;1.88;;
54993;SDS011;40891;47.242;8.648;2022-08-04T18:20:04;2.28;;;1.83;;
54993;SDS011;40891;47.242;8.648;2022-08-04T18:22:30;3.08;;;1.70;;
54993;SDS011;40891;47.242;8.648;2022-08-04T18:24:56;8.27;;;1.70;;
54993;SDS011;40891;47.242;8.648;2022-08-04T18:27:22;1.80;;;1.70;;
54993;SDS011;40891;47.242;8.648;2022-08-04T18:29:49;3.28;;;1.73;;
54993;SDS011;40891;47.242;8.648;2022-08-04T18:32:15;5.28;;;1.70;;
54993;SDS011;40891;47.242;8.648;2022-08-04T18:34:40;1.98;;;1.45;;
54993;SDS011;40891;47.242;8.648;2022-08-04T18:37:06;4.10;;;1.95;;
54993;SDS011;40891;47.242;8.648;2022-08-04T18:39:32;7.25;;;1.83;;
54993;SDS011;40891;47.242;8.648;2022-08-04T18:41:58;2.03;;;1.80;;
54993;SDS011;40891;47.242;8.648;2022-08-04T18:44:24;4.15;;;1.60;;
54993;SDS011;40891;47.242;8.648;2022-08-04T18:46:51;2.13;;;1.77;;
54993;SDS011;40891;47.242;8.648;2022-08-04T18:49:16;2.28;;;1.67;;
54993;SDS011;40891;47.242;8.648;2022-08-04T18:51:41;2.80;;;1.98;;
54993;SDS011;40891;47.242;8.648;2022-08-04T18:54:07;3.65;;;1.58;;
54993;SDS011;40891;47.242;8.648;2022-08-04T18:56:32;3.03;;;1.40;;
54993;SDS011;40891;47.242;8.648;2022-08-04T18:58:59;5.10;;;1.88;;
54993;SDS011;40891;47.242;8.648;2022-08-04T19:01:25;7.78;;;1.92;;
54993;SDS011;40891;47.242;8.648;2022-08-04T19:03:50;3.72;;;1.90;;
54993;SDS011;40891;47.242;8.648;2022-08-04T19:06:17;6.38;;;2.00;;
54993;SDS011;40891;47.242;8.648;2022-08-04T19:08:42;10.82;;;2.00;;
54993;SDS011;40891;47.242;8.648;2022-08-04T19:11:08;2.17;;;1.95;;
54993;SDS011;40891;47.242;8.648;2022-08-04T19:13:33;6.88;;;2.20;;
54993;SDS011;40891;47.242;8.648;2022-08-04T19:15:58;4.35;;;1.80;;
54993;SDS011;40891;47.242;8.648;2022-08-04T19:18:24;3.47;;;2.10;;
54993;SDS011;40891;47.242;8.648;2022-08-04T19:20:50;4.32;;;2.05;;
54993;SDS011;40891;47.242;8.648;2022-08-04T19:23:16;9.55;;;2.15;;
54993;SDS011;40891;47.242;8.648;2022-08-04T19:25:42;3.25;;;2.00;;
54993;SDS011;40891;47.242;8.648;2022-08-04T19:28:08;6.80;;;2.22;;
54993;SDS011;40891;47.242;8.648;2022-08-04T19:30:33;5.10;;;2.05;;
54993;SDS011;40891;47.242;8.648;2022-08-04T19:32:59;3.42;;;1.92;;
54993;SDS011;40891;47.242;8.648;2022-08-04T19:35:24;3.70;;;2.13;;
54993;SDS011;40891;47.242;8.648;2022-08-04T19:37:49;3.28;;;2.17;;
54993;SDS011;40891;47.242;8.648;2022-08-04T19:40:15;2.58;;;1.80;;
54993;SDS011;40891;47.242;8.648;2022-08-04T19:42:40;6.35;;;2.30;;
54993;SDS011;40891;47.242;8.648;2022-08-04T19:45:07;4.68;;;2.00;;
54993;SDS011;40891;47.242;8.648;2022-08-04T19:47:34;4.38;;;2.00;;
54993;SDS011;40891;47.242;8.648;2022-08-04T19:49:59;4.55;;;2.00;;
54993;SDS011;40891;47.242;8.648;2022-08-04T19:52:25;1.73;;;1.63;;
54993;SDS011;40891;47.242;8.648;2022-08-04T19:54:50;4.03;;;2.25;;
54993;SDS011;40891;47.242;8.648;2022-08-04T19:57:15;2.92;;;2.10;;
54993;SDS011;40891;47.242;8.648;2022-08-04T19:59:40;5.90;;;1.65;;
54993;SDS011;40891;47.242;8.648;2022-08-04T20:02:06;2.15;;;1.55;;